sensor_id;sensor_type;location;lat;lon;timestamp;P1;durP1;ratioP1;P2;durP2;ratioP2
2638;SDS011;1329;51.384;7.122;2022-12-07T00:00:55;38.60;;;32.80;;
2638;SDS011;1329;51.384;7.122;2022-12-07T00:03:31;37.37;;;31.53;;
2638;SDS011;1329;51.384;7.122;2022-12-07T00:05:58;35.17;;;31.40;;
2638;SDS011;1329;51.384;7.122;2022-12-07T00:08:25;37.07;;;33.07;;
2638;SDS011;1329;51.384;7.122;2022-12-07T00:10:52;35.77;;;31.90;;
2638;SDS011;1329;51.384;7.122;2022-12-07T00:13:19;36.43;;;32.53;;
2638;SDS011;1329;51.384;7.122;2022-12-07T00:15:48;36.37;;;32.43;;
2638;SDS011;1329;51.384;7.122;2022-12-07T00:18:15;36.73;;;32.77;;
2638;SDS011;1329;51.384;7.122;2022-12-07T00:20:42;37.90;;;33.77;;
2638;SDS011;1329;51.384;7.122;2022-12-07T00:23:09;36.87;;;32.90;;
2638;SDS011;1329;51.384;7.122;2022-12-07T00:25:36;36.13;;;32.30;;
2638;SDS011;1329;51.384;7.122;2022-12-07T00:28:04;37.57;;;33.47;;
2638;SDS011;1329;51.384;7.122;2022-12-07T00:30:32;37.20;;;33.13;;
2638;SDS011;1329;51.384;7.122;2022-12-07T00:33:01;37.37;;;33.00;;
2638;SDS011;1329;51.384;7.122;2022-12-07T00:35:28;37.17;;;33.13;;
2638;SDS011;1329;51.384;7.122;2022-12-07T00:37:55;36.13;;;32.13;;
2638;SDS011;1329;51.384;7.122;2022-12-07T00:40:24;36.40;;;32.47;;
2638;SDS011;1329;51.384;7.122;2022-12-07T00:42:51;37.97;;;33.83;;
2638;SDS011;1329;51.384;7.122;2022-12-07T00:45:18;36.90;;;32.50;;
2638;SDS011;1329;51.384;7.122;2022-12-07T00:47:45;37.13;;;32.87;;
2638;SDS011;1329;51.384;7.122;2022-12-07T00:50:14;36.67;;;32.67;;
2638;SDS011;1329;51.384;7.122;2022-12-07T00:52:41;36.83;;;32.83;;
2638;SDS011;1329;51.384;7.122;2022-12-07T00:55:08;36.60;;;32.17;;
2638;SDS011;1329;51.384;7.122;2022-12-07T00:57:35;35.10;;;31.43;;
2638;SDS011;1329;51.384;7.122;2022-12-07T01:00:02;36.97;;;33.03;;
2638;SDS011;1329;51.384;7.122;2022-12-07T01:02:31;36.40;;;32.50;;
2638;SDS011;1329;51.384;7.122;2022-12-07T01:04:58;35.70;;;31.93;;
2638;SDS011;1329;51.384;7.122;2022-12-07T01:07:26;37.10;;;32.77;;
2638;SDS011;1329;51.384;7.122;2022-12-07T01:09:53;35.17;;;31.57;;
2638;SDS011;1329;51.384;7.122;2022-12-07T01:12:20;35.07;;;31.47;;
2638;SDS011;1329;51.384;7.122;2022-12-07T01:14:47;35.53;;;31.57;;
2638;SDS011;1329;51.384;7.122;2022-12-07T01:17:14;34.77;;;31.03;;
2638;SDS011;1329;51.384;7.122;2022-12-07T01:19:41;35.33;;;31.73;;
2638;SDS011;1329;51.384;7.122;2022-12-07T01:22:10;33.83;;;30.27;;
2638;SDS011;1329;51.384;7.122;2022-12-07T01:24:41;31.77;;;28.47;;
2638;SDS011;1329;51.384;7.122;2022-12-07T01:27:08;31.77;;;28.53;;
2638;SDS011;1329;51.384;7.122;2022-12-07T01:29:35;30.93;;;27.67;;
2638;SDS011;1329;51.384;7.122;2022-12-07T01:32:02;33.17;;;29.67;;
2638;SDS011;1329;51.384;7.122;2022-12-07T01:34:29;31.27;;;28.07;;
2638;SDS011;1329;51.384;7.122;2022-12-07T01:36:56;32.03;;;28.70;;
2638;SDS011;1329;51.384;7.122;2022-12-07T01:39:23;31.37;;;28.13;;
2638;SDS011;1329;51.384;7.122;2022-12-07T01:41:53;32.03;;;28.67;;
2638;SDS011;1329;51.384;7.122;2022-12-07T01:44:21;31.27;;;28.10;;
2638;SDS011;1329;51.384;7.122;2022-12-07T01:46:51;32.47;;;29.10;;
2638;SDS011;1329;51.384;7.122;2022-12-07T01:49:23;31.83;;;28.43;;
2638;SDS011;1329;51.384;7.122;2022-12-07T01:51:57;33.67;;;30.17;;
2638;SDS011;1329;51.384;7.122;2022-12-07T01:54:36;31.77;;;28.47;;
2638;SDS011;1329;51.384;7.122;2022-12-07T01:57:06;32.10;;;28.60;;
2638;SDS011;1329;51.384;7.122;2022-12-07T01:59:34;35.17;;;29.97;;
2638;SDS011;1329;51.384;7.122;2022-12-07T02:02:03;34.63;;;30.93;;
2638;SDS011;1329;51.384;7.122;2022-12-07T02:04:36;36.73;;;31.00;;
2638;SDS011;1329;51.384;7.122;2022-12-07T02:07:05;36.87;;;31.90;;
2638;SDS011;1329;51.384;7.122;2022-12-07T02:09:33;36.23;;;32.10;;
2638;SDS011;1329;51.384;7.122;2022-12-07T02:12:00;34.90;;;30.23;;
2638;SDS011;1329;51.384;7.122;2022-12-07T02:14:29;38.27;;;31.80;;
2638;SDS011;1329;51.384;7.122;2022-12-07T02:17:00;35.13;;;30.27;;
2638;SDS011;1329;51.384;7.122;2022-12-07T02:22:51;32.63;;;28.37;;
2638;SDS011;1329;51.384;7.122;2022-12-07T02:25:53;33.83;;;29.20;;
2638;SDS011;1329;51.384;7.122;2022-12-07T02:28:58;33.70;;;28.63;;
2638;SDS011;1329;51.384;7.122;2022-12-07T02:31:40;34.17;;;29.57;;
2638;SDS011;1329;51.384;7.122;2022-12-07T02:34:12;34.27;;;30.20;;
2638;SDS011;1329;51.384;7.122;2022-12-07T02:36:50;34.83;;;29.70;;
2638;SDS011;1329;51.384;7.122;2022-12-07T02:39:24;35.13;;;30.27;;
2638;SDS011;1329;51.384;7.122;2022-12-07T02:42:00;37.30;;;30.93;;
2638;SDS011;1329;51.384;7.122;2022-12-07T02:44:38;34.97;;;30.50;;
2638;SDS011;1329;51.384;7.122;2022-12-07T02:47:07;36.03;;;31.07;;
2638;SDS011;1329;51.384;7.122;2022-12-07T02:49:39;37.33;;;31.13;;
2638;SDS011;1329;51.384;7.122;2022-12-07T02:52:07;36.50;;;31.47;;
2638;SDS011;1329;51.384;7.122;2022-12-07T02:54:34;35.63;;;31.03;;
2638;SDS011;1329;51.384;7.122;2022-12-07T02:57:02;39.17;;;32.47;;
2638;SDS011;1329;51.384;7.122;2022-12-07T02:59:50;34.33;;;29.90;;
2638;SDS011;1329;51.384;7.122;2022-12-07T03:02:31;36.00;;;30.53;;
2638;SDS011;1329;51.384;7.122;2022-12-07T03:05:13;36.90;;;31.10;;
2638;SDS011;1329;51.384;7.122;2022-12-07T03:08:00;36.43;;;29.67;;
2638;SDS011;1329;51.384;7.122;2022-12-07T03:10:34;35.30;;;30.30;;
2638;SDS011;1329;51.384;7.122;2022-12-07T03:13:25;36.17;;;29.93;;
2638;SDS011;1329;51.384;7.122;2022-12-07T03:16:01;35.40;;;28.70;;
2638;SDS011;1329;51.384;7.122;2022-12-07T03:18:34;34.87;;;28.80;;
2638;SDS011;1329;51.384;7.122;2022-12-07T03:21:05;36.37;;;30.00;;
2638;SDS011;1329;51.384;7.122;2022-12-07T03:23:40;36.03;;;29.90;;
2638;SDS011;1329;51.384;7.122;2022-12-07T03:26:12;36.73;;;30.80;;
2638;SDS011;1329;51.384;7.122;2022-12-07T03:28:44;34.70;;;29.73;;
2638;SDS011;1329;51.384;7.122;2022-12-07T03:31:18;38.50;;;30.77;;
2638;SDS011;1329;51.384;7.122;2022-12-07T03:33:49;39.97;;;32.10;;
2638;SDS011;1329;51.384;7.122;2022-12-07T03:36:27;37.97;;;31.60;;
2638;SDS011;1329;51.384;7.122;2022-12-07T03:39:00;37.10;;;30.43;;
2638;SDS011;1329;51.384;7.122;2022-12-07T03:41:38;39.70;;;31.37;;
2638;SDS011;1329;51.384;7.122;2022-12-07T03:44:06;34.87;;;29.87;;
2638;SDS011;1329;51.384;7.122;2022-12-07T03:46:37;37.67;;;31.37;;
2638;SDS011;1329;51.384;7.122;2022-12-07T03:49:13;36.60;;;30.60;;
2638;SDS011;1329;51.384;7.122;2022-12-07T03:51:51;34.50;;;29.53;;
2638;SDS011;1329;51.384;7.122;2022-12-07T03:54:26;38.80;;;30.33;;
2638;SDS011;1329;51.384;7.122;2022-12-07T03:56:57;38.47;;;31.50;;
2638;SDS011;1329;51.384;7.122;2022-12-07T03:59:25;37.43;;;31.63;;
2638;SDS011;1329;51.384;7.122;2022-12-07T04:01:56;40.17;;;32.17;;
2638;SDS011;1329;51.384;7.122;2022-12-07T04:04:28;41.37;;;32.03;;
2638;SDS011;1329;51.384;7.122;2022-12-07T04:06:55;37.83;;;30.37;;
2638;SDS011;1329;51.384;7.122;2022-12-07T04:09:22;38.50;;;32.03;;
2638;SDS011;1329;51.384;7.122;2022-12-07T04:11:49;37.80;;;30.67;;
2638;SDS011;1329;51.384;7.122;2022-12-07T04:14:17;38.43;;;30.57;;
2638;SDS011;1329;51.384;7.122;2022-12-07T04:16:44;36.37;;;31.17;;
2638;SDS011;1329;51.384;7.122;2022-12-07T04:19:13;38.93;;;30.63;;
2638;SDS011;1329;51.384;7.122;2022-12-07T04:21:40;37.07;;;29.83;;
2638;SDS011;1329;51.384;7.122;2022-12-07T04:24:08;37.73;;;29.20;;
2638;SDS011;1329;51.384;7.122;2022-12-07T04:26:36;38.10;;;30.03;;
2638;SDS011;1329;51.384;7.122;2022-12-07T04:29:03;39.47;;;31.33;;
2638;SDS011;1329;51.384;7.122;2022-12-07T04:31:30;37.87;;;29.67;;
2638;SDS011;1329;51.384;7.122;2022-12-07T04:33:57;38.20;;;29.57;;
2638;SDS011;1329;51.384;7.122;2022-12-07T04:36:25;37.83;;;28.50;;
2638;SDS011;1329;51.384;7.122;2022-12-07T04:38:52;34.50;;;28.00;;
2638;SDS011;1329;51.384;7.122;2022-12-07T04:41:20;36.17;;;28.57;;
2638;SDS011;1329;51.384;7.122;2022-12-07T04:43:52;34.83;;;28.07;;
2638;SDS011;1329;51.384;7.122;2022-12-07T04:46:20;37.33;;;29.23;;
2638;SDS011;1329;51.384;7.122;2022-12-07T04:48:48;36.10;;;28.80;;
2638;SDS011;1329;51.384;7.122;2022-12-07T04:51:18;33.40;;;27.23;;
2638;SDS011;1329;51.384;7.122;2022-12-07T04:53:50;34.87;;;28.73;;
2638;SDS011;1329;51.384;7.122;2022-12-07T04:56:18;34.83;;;27.50;;
2638;SDS011;1329;51.384;7.122;2022-12-07T04:58:45;33.67;;;27.43;;
2638;SDS011;1329;51.384;7.122;2022-12-07T05:01:14;36.10;;;28.93;;
2638;SDS011;1329;51.384;7.122;2022-12-07T05:03:43;33.93;;;26.93;;
2638;SDS011;1329;51.384;7.122;2022-12-07T05:06:10;34.87;;;28.33;;
2638;SDS011;1329;51.384;7.122;2022-12-07T05:08:38;34.70;;;27.87;;
2638;SDS011;1329;51.384;7.122;2022-12-07T05:11:08;33.03;;;27.50;;
2638;SDS011;1329;51.384;7.122;2022-12-07T05:13:58;31.43;;;25.90;;
2638;SDS011;1329;51.384;7.122;2022-12-07T05:16:25;31.70;;;27.17;;
2638;SDS011;1329;51.384;7.122;2022-12-07T05:18:52;33.67;;;27.17;;
2638;SDS011;1329;51.384;7.122;2022-12-07T05:21:20;33.70;;;27.57;;
2638;SDS011;1329;51.384;7.122;2022-12-07T05:23:47;33.17;;;26.43;;
2638;SDS011;1329;51.384;7.122;2022-12-07T05:26:16;31.87;;;27.70;;
2638;SDS011;1329;51.384;7.122;2022-12-07T05:28:43;33.87;;;28.07;;
2638;SDS011;1329;51.384;7.122;2022-12-07T05:31:10;33.27;;;27.93;;
2638;SDS011;1329;51.384;7.122;2022-12-07T05:33:37;33.03;;;27.27;;
2638;SDS011;1329;51.384;7.122;2022-12-07T05:36:04;38.87;;;29.33;;
2638;SDS011;1329;51.384;7.122;2022-12-07T05:38:32;33.43;;;27.00;;
2638;SDS011;1329;51.384;7.122;2022-12-07T05:41:00;34.00;;;27.97;;
2638;SDS011;1329;51.384;7.122;2022-12-07T05:43:29;32.40;;;27.03;;
2638;SDS011;1329;51.384;7.122;2022-12-07T05:45:56;32.17;;;27.83;;
2638;SDS011;1329;51.384;7.122;2022-12-07T05:48:25;33.37;;;28.23;;
2638;SDS011;1329;51.384;7.122;2022-12-07T05:50:53;32.80;;;27.90;;
2638;SDS011;1329;51.384;7.122;2022-12-07T05:53:20;33.57;;;27.33;;
2638;SDS011;1329;51.384;7.122;2022-12-07T05:55:47;33.73;;;27.10;;
2638;SDS011;1329;51.384;7.122;2022-12-07T05:58:18;32.73;;;28.17;;
2638;SDS011;1329;51.384;7.122;2022-12-07T06:01:04;33.20;;;27.13;;
2638;SDS011;1329;51.384;7.122;2022-12-07T06:03:31;33.93;;;28.17;;
2638;SDS011;1329;51.384;7.122;2022-12-07T06:05:58;34.63;;;27.63;;
2638;SDS011;1329;51.384;7.122;2022-12-07T06:08:25;36.10;;;27.90;;
2638;SDS011;1329;51.384;7.122;2022-12-07T06:10:52;34.20;;;27.97;;
2638;SDS011;1329;51.384;7.122;2022-12-07T06:13:39;30.37;;;25.87;;
2638;SDS011;1329;51.384;7.122;2022-12-07T06:16:07;32.77;;;27.50;;
2638;SDS011;1329;51.384;7.122;2022-12-07T06:18:35;33.57;;;27.10;;
2638;SDS011;1329;51.384;7.122;2022-12-07T06:21:02;33.23;;;26.67;;
2638;SDS011;1329;51.384;7.122;2022-12-07T06:23:30;31.57;;;26.87;;
2638;SDS011;1329;51.384;7.122;2022-12-07T06:25:57;30.00;;;24.87;;
2638;SDS011;1329;51.384;7.122;2022-12-07T06:28:24;31.00;;;25.03;;
2638;SDS011;1329;51.384;7.122;2022-12-07T06:30:56;32.40;;;26.40;;
2638;SDS011;1329;51.384;7.122;2022-12-07T06:33:26;29.13;;;24.40;;
2638;SDS011;1329;51.384;7.122;2022-12-07T06:35:54;29.23;;;24.43;;
2638;SDS011;1329;51.384;7.122;2022-12-07T06:38:21;25.20;;;22.30;;
2638;SDS011;1329;51.384;7.122;2022-12-07T06:40:48;24.50;;;21.90;;
2638;SDS011;1329;51.384;7.122;2022-12-07T06:43:15;26.03;;;22.20;;
2638;SDS011;1329;51.384;7.122;2022-12-07T06:45:43;24.50;;;21.17;;
2638;SDS011;1329;51.384;7.122;2022-12-07T06:48:10;25.00;;;20.73;;
2638;SDS011;1329;51.384;7.122;2022-12-07T06:50:39;25.13;;;21.10;;
2638;SDS011;1329;51.384;7.122;2022-12-07T06:53:07;25.17;;;21.30;;
2638;SDS011;1329;51.384;7.122;2022-12-07T06:55:35;26.37;;;20.83;;
2638;SDS011;1329;51.384;7.122;2022-12-07T06:58:02;28.30;;;22.00;;
2638;SDS011;1329;51.384;7.122;2022-12-07T07:00:29;28.63;;;22.43;;
2638;SDS011;1329;51.384;7.122;2022-12-07T07:02:57;24.23;;;21.03;;
2638;SDS011;1329;51.384;7.122;2022-12-07T07:05:24;28.30;;;20.97;;
2638;SDS011;1329;51.384;7.122;2022-12-07T07:07:54;25.83;;;21.30;;
2638;SDS011;1329;51.384;7.122;2022-12-07T07:10:24;26.77;;;20.73;;
2638;SDS011;1329;51.384;7.122;2022-12-07T07:12:52;26.00;;;20.60;;
2638;SDS011;1329;51.384;7.122;2022-12-07T07:15:20;21.97;;;19.43;;
2638;SDS011;1329;51.384;7.122;2022-12-07T07:17:47;22.53;;;19.63;;
2638;SDS011;1329;51.384;7.122;2022-12-07T07:20:14;22.90;;;20.03;;
2638;SDS011;1329;51.384;7.122;2022-12-07T07:22:43;21.07;;;18.90;;
2638;SDS011;1329;51.384;7.122;2022-12-07T07:25:12;23.23;;;18.47;;
2638;SDS011;1329;51.384;7.122;2022-12-07T07:27:39;22.30;;;18.23;;
2638;SDS011;1329;51.384;7.122;2022-12-07T07:30:06;21.03;;;17.77;;
2638;SDS011;1329;51.384;7.122;2022-12-07T07:32:35;20.67;;;18.10;;
2638;SDS011;1329;51.384;7.122;2022-12-07T07:35:02;20.77;;;17.93;;
2638;SDS011;1329;51.384;7.122;2022-12-07T07:37:30;23.57;;;18.53;;
2638;SDS011;1329;51.384;7.122;2022-12-07T07:39:58;22.33;;;19.17;;
2638;SDS011;1329;51.384;7.122;2022-12-07T07:42:26;23.43;;;18.67;;
2638;SDS011;1329;51.384;7.122;2022-12-07T07:44:53;21.07;;;18.47;;
2638;SDS011;1329;51.384;7.122;2022-12-07T07:47:21;19.77;;;17.67;;
2638;SDS011;1329;51.384;7.122;2022-12-07T07:49:48;20.37;;;18.27;;
2638;SDS011;1329;51.384;7.122;2022-12-07T07:52:15;21.73;;;19.30;;
2638;SDS011;1329;51.384;7.122;2022-12-07T07:54:42;26.27;;;18.13;;
2638;SDS011;1329;51.384;7.122;2022-12-07T07:57:10;21.63;;;18.83;;
2638;SDS011;1329;51.384;7.122;2022-12-07T07:59:38;23.00;;;18.73;;
2638;SDS011;1329;51.384;7.122;2022-12-07T08:02:07;19.57;;;17.47;;
2638;SDS011;1329;51.384;7.122;2022-12-07T08:04:41;21.20;;;18.63;;
2638;SDS011;1329;51.384;7.122;2022-12-07T08:07:11;27.47;;;19.60;;
2638;SDS011;1329;51.384;7.122;2022-12-07T08:09:39;21.43;;;18.90;;
2638;SDS011;1329;51.384;7.122;2022-12-07T08:12:07;24.07;;;19.83;;
2638;SDS011;1329;51.384;7.122;2022-12-07T08:14:35;24.27;;;18.37;;
2638;SDS011;1329;51.384;7.122;2022-12-07T08:17:03;22.73;;;18.07;;
2638;SDS011;1329;51.384;7.122;2022-12-07T08:19:34;21.23;;;17.87;;
2638;SDS011;1329;51.384;7.122;2022-12-07T08:22:03;23.67;;;17.57;;
2638;SDS011;1329;51.384;7.122;2022-12-07T08:24:34;19.90;;;17.77;;
2638;SDS011;1329;51.384;7.122;2022-12-07T08:27:02;19.47;;;17.37;;
2638;SDS011;1329;51.384;7.122;2022-12-07T08:29:30;19.00;;;16.00;;
2638;SDS011;1329;51.384;7.122;2022-12-07T08:31:58;17.67;;;15.10;;
2638;SDS011;1329;51.384;7.122;2022-12-07T08:34:27;16.53;;;14.83;;
2638;SDS011;1329;51.384;7.122;2022-12-07T08:36:55;16.97;;;14.83;;
2638;SDS011;1329;51.384;7.122;2022-12-07T08:39:23;16.37;;;14.53;;
2638;SDS011;1329;51.384;7.122;2022-12-07T08:41:50;18.80;;;15.17;;
2638;SDS011;1329;51.384;7.122;2022-12-07T08:44:18;15.57;;;13.63;;
2638;SDS011;1329;51.384;7.122;2022-12-07T08:46:46;14.87;;;13.27;;
2638;SDS011;1329;51.384;7.122;2022-12-07T08:49:20;15.20;;;12.60;;
2638;SDS011;1329;51.384;7.122;2022-12-07T08:51:53;14.83;;;12.10;;
2638;SDS011;1329;51.384;7.122;2022-12-07T08:54:23;13.87;;;12.13;;
2638;SDS011;1329;51.384;7.122;2022-12-07T08:56:50;14.40;;;12.73;;
2638;SDS011;1329;51.384;7.122;2022-12-07T08:59:18;13.00;;;11.33;;
2638;SDS011;1329;51.384;7.122;2022-12-07T09:01:49;12.60;;;11.30;;
2638;SDS011;1329;51.384;7.122;2022-12-07T09:04:16;14.50;;;12.70;;
2638;SDS011;1329;51.384;7.122;2022-12-07T09:06:43;14.50;;;12.67;;
2638;SDS011;1329;51.384;7.122;2022-12-07T09:09:12;16.67;;;13.33;;
2638;SDS011;1329;51.384;7.122;2022-12-07T09:11:40;14.87;;;12.80;;
2638;SDS011;1329;51.384;7.122;2022-12-07T09:14:09;14.33;;;12.73;;
2638;SDS011;1329;51.384;7.122;2022-12-07T09:16:37;14.67;;;13.17;;
2638;SDS011;1329;51.384;7.122;2022-12-07T09:19:04;15.07;;;13.03;;
2638;SDS011;1329;51.384;7.122;2022-12-07T09:21:32;15.57;;;13.37;;
2638;SDS011;1329;51.384;7.122;2022-12-07T09:24:00;14.67;;;12.87;;
2638;SDS011;1329;51.384;7.122;2022-12-07T09:26:29;17.17;;;14.50;;
2638;SDS011;1329;51.384;7.122;2022-12-07T09:28:56;16.13;;;14.43;;
2638;SDS011;1329;51.384;7.122;2022-12-07T09:31:23;15.67;;;13.97;;
2638;SDS011;1329;51.384;7.122;2022-12-07T09:33:53;16.03;;;14.40;;
2638;SDS011;1329;51.384;7.122;2022-12-07T09:36:21;16.43;;;14.07;;
2638;SDS011;1329;51.384;7.122;2022-12-07T09:38:48;17.33;;;15.03;;
2638;SDS011;1329;51.384;7.122;2022-12-07T09:41:16;17.03;;;15.23;;
2638;SDS011;1329;51.384;7.122;2022-12-07T09:43:45;16.63;;;14.93;;
2638;SDS011;1329;51.384;7.122;2022-12-07T09:46:16;17.07;;;15.23;;
2638;SDS011;1329;51.384;7.122;2022-12-07T09:48:46;16.10;;;14.50;;
2638;SDS011;1329;51.384;7.122;2022-12-07T09:51:18;19.37;;;15.00;;
2638;SDS011;1329;51.384;7.122;2022-12-07T09:53:49;16.60;;;14.90;;
2638;SDS011;1329;51.384;7.122;2022-12-07T09:56:18;17.87;;;15.63;;
2638;SDS011;1329;51.384;7.122;2022-12-07T09:58:48;18.70;;;15.27;;
2638;SDS011;1329;51.384;7.122;2022-12-07T10:01:18;16.70;;;15.00;;
2638;SDS011;1329;51.384;7.122;2022-12-07T10:03:48;17.83;;;13.90;;
2638;SDS011;1329;51.384;7.122;2022-12-07T10:06:21;14.77;;;13.20;;
2638;SDS011;1329;51.384;7.122;2022-12-07T10:08:49;13.87;;;12.47;;
2638;SDS011;1329;51.384;7.122;2022-12-07T10:11:16;13.83;;;12.43;;
2638;SDS011;1329;51.384;7.122;2022-12-07T10:13:45;17.60;;;12.53;;
2638;SDS011;1329;51.384;7.122;2022-12-07T10:19:17;13.23;;;11.57;;
2638;SDS011;1329;51.384;7.122;2022-12-07T10:21:59;13.67;;;11.43;;
2638;SDS011;1329;51.384;7.122;2022-12-07T10:24:30;13.93;;;11.73;;
2638;SDS011;1329;51.384;7.122;2022-12-07T10:26:57;14.93;;;12.07;;
2638;SDS011;1329;51.384;7.122;2022-12-07T10:29:29;14.73;;;12.20;;
2638;SDS011;1329;51.384;7.122;2022-12-07T10:31:59;12.80;;;11.50;;
2638;SDS011;1329;51.384;7.122;2022-12-07T10:34:29;14.60;;;11.23;;
2638;SDS011;1329;51.384;7.122;2022-12-07T10:37:15;14.33;;;11.23;;
2638;SDS011;1329;51.384;7.122;2022-12-07T10:39:45;12.50;;;11.20;;
2638;SDS011;1329;51.384;7.122;2022-12-07T10:42:18;13.67;;;10.73;;
2638;SDS011;1329;51.384;7.122;2022-12-07T10:44:49;12.67;;;10.37;;
2638;SDS011;1329;51.384;7.122;2022-12-07T10:47:33;14.17;;;10.23;;
2638;SDS011;1329;51.384;7.122;2022-12-07T10:53:11;10.13;;;8.93;;
2638;SDS011;1329;51.384;7.122;2022-12-07T10:55:56;10.73;;;8.10;;
2638;SDS011;1329;51.384;7.122;2022-12-07T10:58:44;10.60;;;8.40;;
2638;SDS011;1329;51.384;7.122;2022-12-07T11:01:29;8.70;;;7.67;;
2638;SDS011;1329;51.384;7.122;2022-12-07T11:04:10;9.20;;;7.50;;
2638;SDS011;1329;51.384;7.122;2022-12-07T11:06:46;9.40;;;7.23;;
2638;SDS011;1329;51.384;7.122;2022-12-07T11:09:29;10.77;;;7.53;;
2638;SDS011;1329;51.384;7.122;2022-12-07T11:12:18;9.90;;;7.30;;
2638;SDS011;1329;51.384;7.122;2022-12-07T11:14:54;9.03;;;7.07;;
2638;SDS011;1329;51.384;7.122;2022-12-07T11:17:33;11.20;;;8.10;;
2638;SDS011;1329;51.384;7.122;2022-12-07T11:22:54;9.43;;;8.43;;
2638;SDS011;1329;51.384;7.122;2022-12-07T11:25:32;11.87;;;8.63;;
2638;SDS011;1329;51.384;7.122;2022-12-07T11:28:13;9.37;;;8.47;;
2638;SDS011;1329;51.384;7.122;2022-12-07T11:30:56;11.77;;;10.23;;
2638;SDS011;1329;51.384;7.122;2022-12-07T11:33:37;11.00;;;9.80;;
2638;SDS011;1329;51.384;7.122;2022-12-07T11:36:15;11.23;;;9.87;;
2638;SDS011;1329;51.384;7.122;2022-12-07T11:39:00;12.60;;;10.10;;
2638;SDS011;1329;51.384;7.122;2022-12-07T11:41:31;15.87;;;11.50;;
2638;SDS011;1329;51.384;7.122;2022-12-07T11:44:04;12.07;;;10.87;;
2638;SDS011;1329;51.384;7.122;2022-12-07T11:46:40;12.87;;;11.40;;
2638;SDS011;1329;51.384;7.122;2022-12-07T11:49:19;12.77;;;11.30;;
2638;SDS011;1329;51.384;7.122;2022-12-07T11:51:51;12.40;;;11.13;;
2638;SDS011;1329;51.384;7.122;2022-12-07T11:54:25;12.30;;;10.50;;
2638;SDS011;1329;51.384;7.122;2022-12-07T11:56:59;12.63;;;10.63;;
2638;SDS011;1329;51.384;7.122;2022-12-07T11:59:33;12.20;;;9.83;;
2638;SDS011;1329;51.384;7.122;2022-12-07T12:02:11;13.40;;;9.43;;
2638;SDS011;1329;51.384;7.122;2022-12-07T12:04:47;11.07;;;9.40;;
2638;SDS011;1329;51.384;7.122;2022-12-07T12:07:22;11.07;;;9.67;;
2638;SDS011;1329;51.384;7.122;2022-12-07T12:09:53;11.60;;;9.17;;
2638;SDS011;1329;51.384;7.122;2022-12-07T12:12:38;11.47;;;9.27;;
2638;SDS011;1329;51.384;7.122;2022-12-07T12:15:36;13.53;;;9.80;;
2638;SDS011;1329;51.384;7.122;2022-12-07T12:18:31;11.57;;;8.63;;
2638;SDS011;1329;51.384;7.122;2022-12-07T12:21:17;11.60;;;8.53;;
2638;SDS011;1329;51.384;7.122;2022-12-07T12:23:47;11.17;;;8.60;;
2638;SDS011;1329;51.384;7.122;2022-12-07T12:26:22;10.43;;;8.10;;
2638;SDS011;1329;51.384;7.122;2022-12-07T12:28:53;9.03;;;8.13;;
2638;SDS011;1329;51.384;7.122;2022-12-07T12:31:31;8.47;;;7.60;;
2638;SDS011;1329;51.384;7.122;2022-12-07T12:34:19;11.27;;;7.27;;
2638;SDS011;1329;51.384;7.122;2022-12-07T12:40:23;8.40;;;5.97;;
2638;SDS011;1329;51.384;7.122;2022-12-07T12:58:41;6.57;;;5.10;;
2638;SDS011;1329;51.384;7.122;2022-12-07T13:10:39;6.03;;;5.40;;
2638;SDS011;1329;51.384;7.122;2022-12-07T13:13:29;6.97;;;4.97;;
2638;SDS011;1329;51.384;7.122;2022-12-07T13:22:39;8.80;;;4.60;;
2638;SDS011;1329;51.384;7.122;2022-12-07T13:25:12;6.80;;;4.10;;
2638;SDS011;1329;51.384;7.122;2022-12-07T13:27:51;6.83;;;4.47;;
2638;SDS011;1329;51.384;7.122;2022-12-07T13:30:28;6.77;;;4.47;;
2638;SDS011;1329;51.384;7.122;2022-12-07T13:33:00;6.90;;;4.47;;
2638;SDS011;1329;51.384;7.122;2022-12-07T13:35:31;8.00;;;4.23;;
2638;SDS011;1329;51.384;7.122;2022-12-07T13:38:02;5.43;;;4.30;;
2638;SDS011;1329;51.384;7.122;2022-12-07T13:40:41;6.60;;;4.37;;
2638;SDS011;1329;51.384;7.122;2022-12-07T13:43:12;5.57;;;4.40;;
2638;SDS011;1329;51.384;7.122;2022-12-07T13:45:41;6.10;;;5.00;;
2638;SDS011;1329;51.384;7.122;2022-12-07T13:48:16;10.03;;;5.00;;
2638;SDS011;1329;51.384;7.122;2022-12-07T13:50:53;8.53;;;4.70;;
2638;SDS011;1329;51.384;7.122;2022-12-07T13:53:25;8.87;;;4.53;;
2638;SDS011;1329;51.384;7.122;2022-12-07T13:55:56;6.00;;;4.40;;
2638;SDS011;1329;51.384;7.122;2022-12-07T13:58:25;5.87;;;4.67;;
2638;SDS011;1329;51.384;7.122;2022-12-07T14:00:58;6.83;;;4.77;;
2638;SDS011;1329;51.384;7.122;2022-12-07T14:03:27;5.13;;;4.43;;
2638;SDS011;1329;51.384;7.122;2022-12-07T14:06:11;4.43;;;3.43;;
2638;SDS011;1329;51.384;7.122;2022-12-07T14:08:44;4.67;;;3.17;;
2638;SDS011;1329;51.384;7.122;2022-12-07T14:11:17;7.17;;;3.60;;
2638;SDS011;1329;51.384;7.122;2022-12-07T14:13:56;5.77;;;3.50;;
2638;SDS011;1329;51.384;7.122;2022-12-07T14:16:29;7.30;;;3.40;;
2638;SDS011;1329;51.384;7.122;2022-12-07T14:19:00;3.63;;;3.30;;
2638;SDS011;1329;51.384;7.122;2022-12-07T14:21:29;4.93;;;3.57;;
2638;SDS011;1329;51.384;7.122;2022-12-07T14:24:02;5.90;;;3.73;;
2638;SDS011;1329;51.384;7.122;2022-12-07T14:26:44;4.57;;;3.50;;
2638;SDS011;1329;51.384;7.122;2022-12-07T14:29:19;6.53;;;3.50;;
2638;SDS011;1329;51.384;7.122;2022-12-07T14:31:52;6.30;;;3.63;;
2638;SDS011;1329;51.384;7.122;2022-12-07T14:34:20;6.67;;;4.03;;
2638;SDS011;1329;51.384;7.122;2022-12-07T14:36:48;7.77;;;4.30;;
2638;SDS011;1329;51.384;7.122;2022-12-07T14:39:15;8.37;;;4.07;;
2638;SDS011;1329;51.384;7.122;2022-12-07T14:41:44;5.57;;;4.23;;
2638;SDS011;1329;51.384;7.122;2022-12-07T14:44:17;4.47;;;3.97;;
2638;SDS011;1329;51.384;7.122;2022-12-07T14:46:46;8.20;;;4.93;;
2638;SDS011;1329;51.384;7.122;2022-12-07T14:49:13;8.67;;;4.90;;
2638;SDS011;1329;51.384;7.122;2022-12-07T14:51:41;5.13;;;4.20;;
2638;SDS011;1329;51.384;7.122;2022-12-07T14:54:13;5.30;;;4.30;;
2638;SDS011;1329;51.384;7.122;2022-12-07T14:56:49;5.37;;;3.83;;
2638;SDS011;1329;51.384;7.122;2022-12-07T14:59:17;6.30;;;4.57;;
2638;SDS011;1329;51.384;7.122;2022-12-07T15:01:44;4.93;;;4.40;;
2638;SDS011;1329;51.384;7.122;2022-12-07T15:04:11;6.67;;;4.83;;
2638;SDS011;1329;51.384;7.122;2022-12-07T15:06:39;7.23;;;4.60;;
2638;SDS011;1329;51.384;7.122;2022-12-07T15:09:09;5.80;;;4.50;;
2638;SDS011;1329;51.384;7.122;2022-12-07T15:11:39;6.80;;;5.27;;
2638;SDS011;1329;51.384;7.122;2022-12-07T15:14:08;7.77;;;5.70;;
2638;SDS011;1329;51.384;7.122;2022-12-07T15:16:37;7.70;;;6.00;;
2638;SDS011;1329;51.384;7.122;2022-12-07T15:19:09;8.77;;;6.10;;
2638;SDS011;1329;51.384;7.122;2022-12-07T15:21:40;10.80;;;5.80;;
2638;SDS011;1329;51.384;7.122;2022-12-07T15:24:08;6.47;;;5.30;;
2638;SDS011;1329;51.384;7.122;2022-12-07T15:26:37;9.00;;;5.90;;
2638;SDS011;1329;51.384;7.122;2022-12-07T15:29:10;5.93;;;4.77;;
2638;SDS011;1329;51.384;7.122;2022-12-07T15:31:39;7.07;;;5.40;;
2638;SDS011;1329;51.384;7.122;2022-12-07T15:34:06;5.47;;;4.80;;
2638;SDS011;1329;51.384;7.122;2022-12-07T15:36:34;5.97;;;5.13;;
2638;SDS011;1329;51.384;7.122;2022-12-07T15:39:01;7.63;;;5.50;;
2638;SDS011;1329;51.384;7.122;2022-12-07T15:41:29;7.80;;;5.83;;
2638;SDS011;1329;51.384;7.122;2022-12-07T15:43:56;6.57;;;5.87;;
2638;SDS011;1329;51.384;7.122;2022-12-07T15:46:42;6.70;;;5.30;;
2638;SDS011;1329;51.384;7.122;2022-12-07T15:49:10;7.40;;;5.53;;
2638;SDS011;1329;51.384;7.122;2022-12-07T15:51:42;6.27;;;5.07;;
2638;SDS011;1329;51.384;7.122;2022-12-07T15:54:11;7.53;;;5.93;;
2638;SDS011;1329;51.384;7.122;2022-12-07T15:56:43;6.73;;;5.37;;
2638;SDS011;1329;51.384;7.122;2022-12-07T15:59:10;8.10;;;6.47;;
2638;SDS011;1329;51.384;7.122;2022-12-07T16:01:42;7.27;;;6.40;;
2638;SDS011;1329;51.384;7.122;2022-12-07T16:04:11;7.13;;;5.70;;
2638;SDS011;1329;51.384;7.122;2022-12-07T16:06:38;11.73;;;6.70;;